Time;durP1;ratioP1;P1;durP2;ratioP2;P2;SDS_P1;SDS_P2;PMS_P1;PMS_P2;Temp;Humidity;BMP_temperature;BMP_pressure;BME280_temperature;BME280_humidity;BME280_pressure;Samples;Min_cycle;Max_cycle;Signal;HPM_P1;HPM_P2
2023/12/24 00:01:04;;;;;;;87.63;10.40;;;;;;;;;;4988314;28;20038;-88
2023/12/24 00:03:34;;;;;;;41.95;6.97;;;;;;;;;;4989788;28;20133;-88
2023/12/24 00:06:00;;;;;;;87.28;9.77;;;;;;;;;;4989651;28;20046;-88
2023/12/24 00:08:30;;;;;;;67.22;8.82;;;;;;;;;;4989703;28;20060;-88
2023/12/24 00:10:56;;;;;;;38.10;6.68;;;;;;;;;;4988009;28;20670;-88
2023/12/24 00:13:24;;;;;;;45.30;6.30;;;;;;;;;;4989492;28;20050;-88
2023/12/24 00:15:51;;;;;;;86.68;9.13;;;;;;;;;;4989000;28;20497;-88
2023/12/24 00:18:18;;;;;;;50.70;6.60;;;;;;;;;;4989913;28;20100;-89
2023/12/24 00:20:45;;;;;;;35.47;4.90;;;;;;;;;;4989697;28;20034;-88
2023/12/24 00:23:12;;;;;;;57.88;7.30;;;;;;;;;;4989534;28;20047;-88
2023/12/24 00:25:39;;;;;;;44.95;5.68;;;;;;;;;;4989772;28;20053;-89
2023/12/24 00:28:06;;;;;;;41.17;5.72;;;;;;;;;;4989523;28;20399;-88
2023/12/24 00:30:32;;;;;;;100.10;9.05;;;;;;;;;;4988824;28;20460;-89
2023/12/24 00:32:59;;;;;;;46.38;6.50;;;;;;;;;;4988823;28;20100;-88
2023/12/24 00:35:26;;;;;;;58.30;7.13;;;;;;;;;;4987839;28;20070;-88
2023/12/24 00:37:56;;;;;;;73.10;8.23;;;;;;;;;;4989363;28;20042;-88
2023/12/24 00:40:22;;;;;;;30.67;6.07;;;;;;;;;;4988347;28;20052;-88
2023/12/24 00:42:49;;;;;;;51.17;6.88;;;;;;;;;;4989508;28;20046;-89
2023/12/24 00:45:16;;;;;;;42.13;5.00;;;;;;;;;;4977065;28;20560;-89
2023/12/24 00:47:42;;;;;;;31.67;4.95;;;;;;;;;;4976343;28;20079;-89
2023/12/24 00:50:09;;;;;;;35.53;4.85;;;;;;;;;;4974232;28;20097;-90
2023/12/24 00:52:37;;;;;;;71.57;8.07;;;;;;;;;;4977560;28;20509;-89
2023/12/24 00:55:04;;;;;;;48.97;5.82;;;;;;;;;;4985291;28;20454;-89
2023/12/24 00:57:31;;;;;;;61.65;6.90;;;;;;;;;;4986333;28;20057;-89
2023/12/24 00:59:57;;;;;;;81.45;7.55;;;;;;;;;;4988630;28;20695;-88
2023/12/24 01:02:24;;;;;;;36.03;5.35;;;;;;;;;;4987637;28;20046;-89
2023/12/24 01:04:51;;;;;;;47.10;5.28;;;;;;;;;;4990940;28;20807;-89
2023/12/24 01:07:17;;;;;;;102.03;8.48;;;;;;;;;;4991094;28;20100;-89
2023/12/24 01:09:44;;;;;;;31.58;5.38;;;;;;;;;;4993178;28;20049;-89
2023/12/24 01:12:11;;;;;;;33.28;4.05;;;;;;;;;;4991651;28;20061;-89
2023/12/24 01:14:37;;;;;;;79.35;7.15;;;;;;;;;;4991894;28;20038;-89
2023/12/24 01:17:04;;;;;;;71.82;6.90;;;;;;;;;;4992612;28;20057;-89
2023/12/24 01:19:31;;;;;;;48.58;5.47;;;;;;;;;;4992507;28;20086;-89
2023/12/24 01:21:58;;;;;;;75.97;7.20;;;;;;;;;;4992413;28;20490;-89
2023/12/24 01:24:25;;;;;;;52.88;5.72;;;;;;;;;;5001432;28;20046;-89
2023/12/24 01:26:51;;;;;;;40.47;4.28;;;;;;;;;;4990983;28;20092;-88
2023/12/24 01:29:18;;;;;;;63.42;6.35;;;;;;;;;;4991784;28;20042;-89
2023/12/24 01:31:44;;;;;;;25.23;3.65;;;;;;;;;;4992249;28;20117;-89
2023/12/24 01:34:11;;;;;;;50.38;5.25;;;;;;;;;;4992300;28;20081;-89
2023/12/24 01:36:39;;;;;;;43.55;4.55;;;;;;;;;;4991829;28;20566;-89
2023/12/24 01:39:07;;;;;;;69.60;5.88;;;;;;;;;;4990645;28;20481;-89
2023/12/24 01:41:34;;;;;;;35.10;4.40;;;;;;;;;;4991112;28;20053;-89
2023/12/24 01:44:01;;;;;;;112.25;8.43;;;;;;;;;;4990109;28;20050;-90
2023/12/24 01:46:28;;;;;;;37.15;4.20;;;;;;;;;;4989627;28;20046;-89
2023/12/24 01:48:56;;;;;;;64.53;5.60;;;;;;;;;;4987761;28;20053;-90
2023/12/24 01:51:29;;;;;;;63.80;5.75;;;;;;;;;;4990545;28;20475;-90
2023/12/24 01:53:55;;;;;;;61.75;6.03;;;;;;;;;;4989587;28;20525;-90
2023/12/24 01:56:24;;;;;;;37.40;3.78;;;;;;;;;;4989343;28;20077;-90
2023/12/24 01:58:51;;;;;;;72.13;5.57;;;;;;;;;;5003578;28;20045;-89
2023/12/24 02:01:17;;;;;;;68.63;5.85;;;;;;;;;;5101993;23;20224;-86
2023/12/24 02:03:44;;;;;;;30.02;3.83;;;;;;;;;;5030160;28;20049;-85
2023/12/24 02:06:12;;;;;;;41.17;3.58;;;;;;;;;;5047292;28;20056;-85
2023/12/24 02:08:38;;;;;;;38.40;4.07;;;;;;;;;;5032683;28;20039;-86
2023/12/24 02:11:05;;;;;;;69.35;5.53;;;;;;;;;;5037046;28;20045;-85
2023/12/24 02:13:32;;;;;;;71.03;5.15;;;;;;;;;;5037515;28;20041;-86
2023/12/24 02:16:01;;;;;;;62.33;4.78;;;;;;;;;;5039623;28;20632;-85
2023/12/24 02:18:27;;;;;;;88.13;6.63;;;;;;;;;;5042291;28;20548;-85
2023/12/24 02:21:02;;;;;;;81.32;5.78;;;;;;;;;;5045208;28;20047;-86
2023/12/24 02:23:29;;;;;;;49.20;3.90;;;;;;;;;;5046391;28;20493;-85
2023/12/24 02:25:57;;;;;;;66.93;5.47;;;;;;;;;;5039529;28;20061;-85
2023/12/24 02:28:26;;;;;;;58.13;5.07;;;;;;;;;;5031946;28;20064;-85
2023/12/24 02:30:55;;;;;;;45.22;3.40;;;;;;;;;;5021820;28;20053;-85
2023/12/24 02:33:23;;;;;;;84.38;6.10;;;;;;;;;;5036472;28;20128;-84
2023/12/24 02:35:51;;;;;;;54.83;4.55;;;;;;;;;;5028197;28;20045;-85
2023/12/24 02:38:17;;;;;;;35.72;3.15;;;;;;;;;;5041183;28;20073;-85
2023/12/24 02:40:44;;;;;;;44.00;3.47;;;;;;;;;;5027275;28;20042;-84
2023/12/24 02:43:10;;;;;;;38.25;3.42;;;;;;;;;;5044364;28;20041;-85
2023/12/24 02:45:38;;;;;;;22.10;2.35;;;;;;;;;;5045349;28;20064;-85
2023/12/24 02:48:04;;;;;;;61.88;4.72;;;;;;;;;;5045801;28;20045;-85
2023/12/24 02:50:31;;;;;;;49.63;4.65;;;;;;;;;;5031000;28;20056;-84
2023/12/24 02:52:58;;;;;;;50.08;4.35;;;;;;;;;;5043469;28;20104;-85
2023/12/24 02:55:27;;;;;;;49.38;4.18;;;;;;;;;;5034698;28;20038;-85
2023/12/24 02:57:53;;;;;;;47.17;3.95;;;;;;;;;;5053125;28;20503;-85
2023/12/24 03:00:20;;;;;;;23.95;2.25;;;;;;;;;;5039475;28;20037;-86
2023/12/24 03:02:47;;;;;;;28.48;2.97;;;;;;;;;;5045625;28;20423;-85
2023/12/24 03:05:13;;;;;;;41.95;4.03;;;;;;;;;;5040193;28;20064;-85
2023/12/24 03:07:40;;;;;;;14.98;1.95;;;;;;;;;;5045931;28;20400;-86
2023/12/24 03:10:06;;;;;;;41.55;3.35;;;;;;;;;;5048361;28;20049;-84
2023/12/24 03:12:33;;;;;;;65.00;4.95;;;;;;;;;;5035482;28;20503;-85
2023/12/24 03:14:59;;;;;;;54.38;4.25;;;;;;;;;;5032021;28;20077;-86
2023/12/24 03:17:26;;;;;;;52.60;4.03;;;;;;;;;;5044084;28;20053;-84
2023/12/24 03:19:53;;;;;;;84.90;6.15;;;;;;;;;;5035701;28;20049;-85
2023/12/24 03:22:20;;;;;;;44.28;3.88;;;;;;;;;;5039001;28;20124;-86
2023/12/24 03:24:46;;;;;;;41.88;3.42;;;;;;;;;;5041293;28;20065;-85
2023/12/24 03:27:14;;;;;;;59.33;4.72;;;;;;;;;;5041740;28;20029;-85
2023/12/24 03:29:43;;;;;;;22.17;2.67;;;;;;;;;;5040944;28;20046;-85
2023/12/24 03:32:09;;;;;;;43.13;3.53;;;;;;;;;;5046371;28;20089;-85
2023/12/24 03:34:36;;;;;;;103.57;7.18;;;;;;;;;;5036243;28;20520;-85
2023/12/24 03:37:02;;;;;;;29.45;2.38;;;;;;;;;;5031538;28;20119;-86
2023/12/24 03:39:29;;;;;;;28.23;2.67;;;;;;;;;;5033169;28;20091;-84
2023/12/24 03:41:56;;;;;;;97.78;6.85;;;;;;;;;;5033928;28;20392;-84
2023/12/24 03:44:22;;;;;;;91.35;7.10;;;;;;;;;;5041265;28;20080;-85
2023/12/24 03:46:52;;;;;;;41.17;3.58;;;;;;;;;;5039300;28;20072;-84
2023/12/24 03:49:20;;;;;;;72.50;6.20;;;;;;;;;;5057139;28;20102;-85
2023/12/24 03:51:47;;;;;;;28.50;3.10;;;;;;;;;;5045654;28;20106;-84
2023/12/24 03:54:14;;;;;;;34.95;3.80;;;;;;;;;;5045679;28;20064;-85
2023/12/24 03:56:41;;;;;;;64.97;5.75;;;;;;;;;;5043055;28;20064;-85
2023/12/24 03:59:07;;;;;;;46.55;5.03;;;;;;;;;;5014393;28;20045;-85
2023/12/24 04:01:34;;;;;;;39.28;3.95;;;;;;;;;;5031980;28;20048;-85
2023/12/24 04:04:00;;;;;;;93.38;6.85;;;;;;;;;;5021116;28;20505;-84
2023/12/24 04:06:27;;;;;;;57.78;5.82;;;;;;;;;;5026184;28;20487;-85
2023/12/24 04:08:54;;;;;;;38.75;4.00;;;;;;;;;;5030415;28;20130;-85
2023/12/24 04:11:21;;;;;;;67.70;5.82;;;;;;;;;;5029891;28;20141;-85
2023/12/24 04:13:48;;;;;;;47.28;5.10;;;;;;;;;;5043000;28;20140;-85
2023/12/24 04:16:17;;;;;;;37.67;4.50;;;;;;;;;;5043344;28;20049;-85
2023/12/24 04:18:43;;;;;;;53.55;5.13;;;;;;;;;;5044167;28;20057;-85
2023/12/24 04:21:10;;;;;;;40.05;4.28;;;;;;;;;;5029422;28;20077;-84
2023/12/24 04:23:37;;;;;;;56.00;5.93;;;;;;;;;;5043753;28;20098;-85
2023/12/24 04:26:04;;;;;;;75.10;6.40;;;;;;;;;;5033338;28;20047;-85
2023/12/24 04:28:31;;;;;;;58.28;5.85;;;;;;;;;;5036395;28;20490;-85
2023/12/24 04:31:00;;;;;;;37.00;4.47;;;;;;;;;;5030431;28;20067;-85
2023/12/24 04:33:27;;;;;;;74.72;6.55;;;;;;;;;;5056087;28;20057;-85
2023/12/24 04:35:53;;;;;;;51.97;4.97;;;;;;;;;;5058253;28;20495;-85
2023/12/24 04:38:20;;;;;;;58.25;5.00;;;;;;;;;;5046040;28;20045;-85
2023/12/24 04:40:48;;;;;;;67.57;5.75;;;;;;;;;;5046671;28;20389;-84
2023/12/24 04:43:15;;;;;;;19.27;2.92;;;;;;;;;;5031454;28;20041;-84
2023/12/24 04:45:42;;;;;;;29.38;3.08;;;;;;;;;;5021521;28;20037;-84
2023/12/24 04:48:09;;;;;;;56.97;4.93;;;;;;;;;;5047991;28;20498;-84
2023/12/24 04:50:35;;;;;;;67.78;6.15;;;;;;;;;;5039253;28;20049;-85
2023/12/24 04:53:02;;;;;;;42.75;4.85;;;;;;;;;;5047610;28;20454;-85
2023/12/24 04:55:30;;;;;;;46.78;4.72;;;;;;;;;;5043896;28;20044;-84
2023/12/24 04:57:56;;;;;;;43.25;4.65;;;;;;;;;;5044576;28;20052;-85
2023/12/24 05:00:23;;;;;;;46.13;4.97;;;;;;;;;;5063559;28;20453;-86
2023/12/24 05:02:49;;;;;;;47.70;4.90;;;;;;;;;;5047621;28;20044;-84
2023/12/24 05:05:17;;;;;;;28.05;3.70;;;;;;;;;;5035342;28;20140;-84
2023/12/24 05:07:43;;;;;;;40.80;4.20;;;;;;;;;;5035354;28;20120;-85
2023/12/24 05:10:10;;;;;;;56.70;5.78;;;;;;;;;;5048212;28;20043;-84
2023/12/24 05:12:37;;;;;;;41.50;5.22;;;;;;;;;;5039153;28;20036;-85
2023/12/24 05:15:03;;;;;;;67.57;6.30;;;;;;;;;;5055873;28;20499;-85
2023/12/24 05:17:30;;;;;;;88.90;7.43;;;;;;;;;;5058947;28;20044;-84
2023/12/24 05:19:57;;;;;;;50.55;6.68;;;;;;;;;;5058419;28;20123;-84
2023/12/24 05:22:23;;;;;;;30.77;4.38;;;;;;;;;;5048201;28;20037;-87
2023/12/24 05:24:50;;;;;;;45.83;5.32;;;;;;;;;;5065189;28;20395;-84
2023/12/24 05:27:16;;;;;;;51.10;5.82;;;;;;;;;;5040004;28;20220;-84
2023/12/24 05:29:43;;;;;;;47.70;5.88;;;;;;;;;;5032703;28;20037;-84
2023/12/24 05:32:10;;;;;;;45.63;5.78;;;;;;;;;;5035966;28;20052;-84
2023/12/24 05:34:36;;;;;;;42.80;4.78;;;;;;;;;;5038712;28;20115;-84
2023/12/24 05:37:03;;;;;;;57.58;6.03;;;;;;;;;;5039906;28;20051;-85
2023/12/24 05:39:30;;;;;;;52.67;5.63;;;;;;;;;;5043609;28;20502;-84
2023/12/24 05:41:56;;;;;;;31.35;4.13;;;;;;;;;;5045685;28;20040;-85
2023/12/24 05:44:23;;;;;;;48.63;4.97;;;;;;;;;;5047671;28;20132;-85
2023/12/24 05:46:53;;;;;;;31.98;4.05;;;;;;;;;;5046018;28;20059;-84
2023/12/24 05:49:19;;;;;;;65.50;6.13;;;;;;;;;;5039897;28;20065;-84
2023/12/24 05:51:46;;;;;;;32.60;4.63;;;;;;;;;;5033312;28;20087;-84
2023/12/24 05:54:13;;;;;;;38.67;5.40;;;;;;;;;;5035767;28;20052;-84
2023/12/24 05:56:40;;;;;;;27.48;4.57;;;;;;;;;;5037511;28;20063;-84
2023/12/24 05:59:07;;;;;;;77.25;7.25;;;;;;;;;;5039549;28;20070;-85
2023/12/24 06:01:34;;;;;;;34.95;4.68;;;;;;;;;;5042973;28;20450;-84
2023/12/24 06:04:00;;;;;;;38.08;4.53;;;;;;;;;;5044418;28;20127;-84
2023/12/24 06:06:27;;;;;;;41.17;4.75;;;;;;;;;;5046088;28;20808;-85
2023/12/24 06:08:53;;;;;;;53.75;5.38;;;;;;;;;;5048200;28;20064;-84
2023/12/24 06:11:20;;;;;;;75.18;6.97;;;;;;;;;;5030457;28;20052;-84
2023/12/24 06:13:46;;;;;;;34.28;4.47;;;;;;;;;;5031287;28;20488;-84
2023/12/24 06:16:13;;;;;;;38.17;4.55;;;;;;;;;;5033624;28;20049;-84
2023/12/24 06:18:40;;;;;;;82.10;7.15;;;;;;;;;;5036207;28;20119;-84
2023/12/24 06:21:08;;;;;;;68.85;6.63;;;;;;;;;;5038534;28;20056;-84
2023/12/24 06:23:35;;;;;;;52.25;6.43;;;;;;;;;;5040402;28;20041;-84
2023/12/24 06:26:01;;;;;;;89.03;7.93;;;;;;;;;;5042723;28;20098;-84
2023/12/24 06:28:28;;;;;;;49.90;5.93;;;;;;;;;;5059715;28;20037;-84
2023/12/24 06:30:55;;;;;;;56.90;5.95;;;;;;;;;;5045801;28;20033;-84
2023/12/24 06:33:22;;;;;;;73.32;7.50;;;;;;;;;;5041165;28;20050;-83
2023/12/24 06:35:49;;;;;;;31.48;5.65;;;;;;;;;;5037558;28;20045;-83
2023/12/24 06:38:15;;;;;;;29.45;4.35;;;;;;;;;;5032693;28;20049;-84
2023/12/24 06:40:42;;;;;;;81.90;8.02;;;;;;;;;;5034081;28;20590;-83
2023/12/24 06:43:08;;;;;;;62.47;7.25;;;;;;;;;;5036668;28;20049;-84
2023/12/24 06:45:35;;;;;;;45.83;6.90;;;;;;;;;;5038621;28;20091;-84
2023/12/24 06:48:02;;;;;;;89.93;8.93;;;;;;;;;;5040390;28;20131;-84
2023/12/24 06:50:29;;;;;;;86.93;8.70;;;;;;;;;;5042747;28;20107;-84
2023/12/24 06:52:56;;;;;;;54.33;6.90;;;;;;;;;;5040674;28;20037;-84
2023/12/24 06:55:23;;;;;;;78.40;8.32;;;;;;;;;;5046751;28;20056;-84
2023/12/24 06:57:50;;;;;;;48.92;8.57;;;;;;;;;;5040952;28;20132;-84
2023/12/24 07:00:16;;;;;;;47.90;6.07;;;;;;;;;;5030449;28;20120;-84
2023/12/24 07:02:43;;;;;;;78.35;8.90;;;;;;;;;;5032956;28;20139;-84
2023/12/24 07:05:09;;;;;;;72.03;8.30;;;;;;;;;;5035423;28;20072;-84
2023/12/24 07:07:36;;;;;;;40.13;6.50;;;;;;;;;;5037793;28;20443;-84
2023/12/24 07:10:04;;;;;;;73.43;7.70;;;;;;;;;;5039657;28;20037;-84
2023/12/24 07:12:31;;;;;;;41.78;7.05;;;;;;;;;;5042002;28;20040;-85
2023/12/24 07:14:57;;;;;;;45.00;7.45;;;;;;;;;;5044253;28;20454;-84
2023/12/24 07:17:24;;;;;;;80.18;9.52;;;;;;;;;;5045892;28;20044;-84
2023/12/24 07:19:51;;;;;;;43.25;6.32;;;;;;;;;;5047974;28;20041;-84
2023/12/24 07:22:17;;;;;;;45.22;7.07;;;;;;;;;;5030900;28;20053;-84
2023/12/24 07:24:44;;;;;;;90.68;9.50;;;;;;;;;;5032450;28;20055;-84
2023/12/24 07:27:10;;;;;;;57.15;7.28;;;;;;;;;;5033538;28;20101;-84
2023/12/24 07:29:41;;;;;;;36.92;6.97;;;;;;;;;;5034273;28;20174;-84
2023/12/24 07:32:08;;;;;;;83.53;9.45;;;;;;;;;;5039414;28;20060;-84
2023/12/24 07:34:35;;;;;;;46.55;7.05;;;;;;;;;;5038874;28;20040;-84
2023/12/24 07:37:01;;;;;;;45.30;7.35;;;;;;;;;;5043769;28;20052;-86
2023/12/24 07:39:28;;;;;;;41.72;8.27;;;;;;;;;;5045725;28;20049;-84
2023/12/24 07:41:55;;;;;;;62.95;8.57;;;;;;;;;;5047618;28;20124;-84
2023/12/24 07:44:22;;;;;;;59.10;9.27;;;;;;;;;;5025729;28;20065;-85
2023/12/24 07:46:49;;;;;;;65.03;10.02;;;;;;;;;;5031540;28;20492;-84
2023/12/24 07:49:15;;;;;;;45.33;9.98;;;;;;;;;;5033485;28;20424;-84
2023/12/24 07:51:42;;;;;;;70.90;9.02;;;;;;;;;;5035659;28;20112;-85
2023/12/24 07:54:08;;;;;;;42.55;6.75;;;;;;;;;;5037062;28;20055;-85
2023/12/24 07:56:35;;;;;;;52.72;8.50;;;;;;;;;;5039479;28;20098;-84
2023/12/24 07:59:01;;;;;;;91.07;10.40;;;;;;;;;;5041250;28;20450;-85
2023/12/24 08:01:28;;;;;;;54.85;8.70;;;;;;;;;;5044247;28;20057;-85
2023/12/24 08:03:55;;;;;;;71.30;9.07;;;;;;;;;;5046637;28;20045;-84
2023/12/24 08:06:23;;;;;;;42.55;7.22;;;;;;;;;;5037189;28;20042;-85
2023/12/24 08:08:55;;;;;;;76.57;9.80;;;;;;;;;;5027528;28;20045;-84
2023/12/24 08:11:22;;;;;;;38.58;8.35;;;;;;;;;;5032674;28;20083;-84
2023/12/24 08:13:50;;;;;;;105.03;10.73;;;;;;;;;;5036535;28;20566;-84
2023/12/24 08:16:17;;;;;;;67.63;8.68;;;;;;;;;;5041558;28;20064;-85
2023/12/24 08:18:43;;;;;;;25.30;5.93;;;;;;;;;;5043366;28;20128;-85
2023/12/24 08:21:10;;;;;;;42.80;7.80;;;;;;;;;;5045247;28;20090;-85
2023/12/24 08:23:37;;;;;;;88.20;9.20;;;;;;;;;;5046908;28;20068;-85
2023/12/24 08:26:05;;;;;;;41.42;6.15;;;;;;;;;;5045547;28;20045;-85
2023/12/24 08:28:31;;;;;;;67.18;8.52;;;;;;;;;;5051053;28;20040;-85
2023/12/24 08:30:59;;;;;;;55.67;6.70;;;;;;;;;;5033687;28;20060;-85
2023/12/24 08:33:25;;;;;;;39.55;6.18;;;;;;;;;;5036063;28;20503;-84
2023/12/24 08:35:52;;;;;;;67.13;8.38;;;;;;;;;;5037745;28;20069;-85
2023/12/24 08:38:21;;;;;;;51.92;6.88;;;;;;;;;;5039932;28;20044;-85
2023/12/24 08:40:48;;;;;;;31.98;5.97;;;;;;;;;;5042235;28;20052;-85
2023/12/24 08:43:15;;;;;;;69.25;8.23;;;;;;;;;;5044133;28;20041;-85
2023/12/24 08:45:42;;;;;;;78.38;8.85;;;;;;;;;;5045992;28;20044;-85
2023/12/24 08:48:08;;;;;;;61.03;8.10;;;;;;;;;;5048340;28;20106;-85
2023/12/24 08:50:35;;;;;;;67.13;8.52;;;;;;;;;;5048980;28;20384;-84
2023/12/24 08:53:02;;;;;;;60.17;7.80;;;;;;;;;;5038492;28;20045;-84
2023/12/24 08:55:30;;;;;;;66.28;9.30;;;;;;;;;;5035136;28;20089;-85
2023/12/24 08:57:58;;;;;;;80.03;10.88;;;;;;;;;;5037176;28;20046;-85
2023/12/24 09:00:24;;;;;;;55.17;9.52;;;;;;;;;;5037083;28;20042;-85
2023/12/24 09:02:51;;;;;;;37.28;6.97;;;;;;;;;;5041222;28;20045;-84
2023/12/24 09:05:18;;;;;;;68.68;8.98;;;;;;;;;;5043064;28;20049;-84
2023/12/24 09:07:45;;;;;;;53.50;7.72;;;;;;;;;;5044906;28;20029;-85
2023/12/24 09:10:12;;;;;;;21.08;6.30;;;;;;;;;;5047557;28;20628;-84
2023/12/24 09:12:39;;;;;;;49.30;7.75;;;;;;;;;;5049685;28;20040;-85
2023/12/24 09:15:06;;;;;;;59.38;8.55;;;;;;;;;;5041441;28;20128;-84
2023/12/24 09:17:33;;;;;;;60.10;8.60;;;;;;;;;;5034039;28;20053;-85
2023/12/24 09:19:59;;;;;;;58.55;7.95;;;;;;;;;;5034267;28;20124;-85
2023/12/24 09:22:31;;;;;;;67.00;8.88;;;;;;;;;;5035532;28;20112;-84
2023/12/24 09:24:57;;;;;;;51.83;8.10;;;;;;;;;;5039331;28;20058;-85
2023/12/24 09:27:24;;;;;;;93.47;10.95;;;;;;;;;;5039625;28;20562;-84
2023/12/24 09:29:51;;;;;;;82.00;10.02;;;;;;;;;;5043201;28;20033;-85
2023/12/24 09:32:17;;;;;;;42.25;8.45;;;;;;;;;;5046220;28;20041;-84
2023/12/24 09:34:47;;;;;;;110.65;12.25;;;;;;;;;;5047683;28;20100;-84
2023/12/24 09:37:13;;;;;;;66.72;9.82;;;;;;;;;;5047955;28;20139;-84
2023/12/24 09:39:40;;;;;;;39.92;8.40;;;;;;;;;;5032806;28;20128;-85
2023/12/24 09:42:06;;;;;;;58.47;9.93;;;;;;;;;;5034945;28;20045;-84
2023/12/24 09:44:34;;;;;;;57.92;9.10;;;;;;;;;;5036774;28;20132;-84
2023/12/24 09:47:01;;;;;;;47.25;7.18;;;;;;;;;;5039517;28;20540;-85
2023/12/24 09:49:28;;;;;;;65.38;9.57;;;;;;;;;;5041532;28;20094;-84
2023/12/24 09:51:56;;;;;;;68.70;10.55;;;;;;;;;;5038269;28;20116;-85
2023/12/24 09:54:23;;;;;;;45.92;9.45;;;;;;;;;;5044778;28;20065;-85
2023/12/24 09:56:49;;;;;;;57.60;11.00;;;;;;;;;;5047188;28;20124;-85
2023/12/24 09:59:16;;;;;;;94.38;12.57;;;;;;;;;;5048375;28;20491;-85
2023/12/24 10:01:46;;;;;;;53.00;9.63;;;;;;;;;;5033362;28;20057;-85
2023/12/24 10:04:13;;;;;;;41.85;9.70;;;;;;;;;;5032362;28;20053;-85
2023/12/24 10:06:53;;;;;;;63.08;10.90;;;;;;;;;;5035668;28;20045;-85
2023/12/24 10:09:23;;;;;;;45.47;10.02;;;;;;;;;;5036384;28;20558;-85
2023/12/24 10:12:04;;;;;;;68.07;10.70;;;;;;;;;;5039562;28;20042;-85
2023/12/24 10:14:31;;;;;;;62.13;11.93;;;;;;;;;;5038621;28;20041;-85
2023/12/24 10:17:00;;;;;;;52.92;12.18;;;;;;;;;;5045387;28;20114;-84
2023/12/24 10:19:27;;;;;;;95.68;12.73;;;;;;;;;;5038487;28;20056;-85
2023/12/24 10:22:01;;;;;;;67.93;12.85;;;;;;;;;;5048319;28;20037;-84
2023/12/24 10:24:29;;;;;;;69.97;10.48;;;;;;;;;;5027120;28;20091;-85
2023/12/24 10:27:02;;;;;;;70.07;11.05;;;;;;;;;;5032467;28;20032;-85
2023/12/24 10:29:29;;;;;;;39.53;9.90;;;;;;;;;;5031663;28;20053;-85
2023/12/24 10:31:55;;;;;;;91.18;13.25;;;;;;;;;;5034392;28;20116;-84
2023/12/24 10:34:22;;;;;;;44.28;9.82;;;;;;;;;;5039476;28;20064;-85
2023/12/24 10:36:49;;;;;;;68.68;11.45;;;;;;;;;;5041775;28;20139;-85
2023/12/24 10:39:18;;;;;;;55.75;12.07;;;;;;;;;;5043592;28;20066;-85
2023/12/24 10:41:44;;;;;;;67.05;13.40;;;;;;;;;;5045995;28;20123;-85
2023/12/24 10:44:11;;;;;;;73.95;13.82;;;;;;;;;;5047756;28;20037;-84
2023/12/24 10:46:37;;;;;;;74.95;11.55;;;;;;;;;;5041043;28;20033;-85
2023/12/24 10:49:04;;;;;;;48.80;9.45;;;;;;;;;;5032152;28;20669;-85
2023/12/24 10:51:31;;;;;;;40.95;8.90;;;;;;;;;;5034778;28;20056;-85
2023/12/24 10:53:57;;;;;;;59.97;10.57;;;;;;;;;;5035803;28;20555;-84
2023/12/24 10:56:27;;;;;;;55.83;10.48;;;;;;;;;;5038017;28;20095;-84
2023/12/24 10:58:56;;;;;;;83.45;10.80;;;;;;;;;;5040104;28;20049;-85
2023/12/24 11:01:23;;;;;;;95.45;11.38;;;;;;;;;;5042694;28;20049;-83
2023/12/24 11:03:50;;;;;;;43.50;9.82;;;;;;;;;;5044449;28;20128;-84
2023/12/24 11:06:35;;;;;;;41.55;9.70;;;;;;;;;;5046967;28;20045;-84
2023/12/24 11:09:31;;;;;;;58.25;10.75;;;;;;;;;;5034801;28;20050;-84
2023/12/24 11:12:01;;;;;;;102.25;12.80;;;;;;;;;;5015647;28;20440;-84
2023/12/24 11:14:37;;;;;;;66.15;10.77;;;;;;;;;;5028056;28;20068;-84
2023/12/24 11:17:06;;;;;;;72.00;12.05;;;;;;;;;;5035293;28;20443;-84
2023/12/24 11:19:35;;;;;;;53.95;10.38;;;;;;;;;;5038791;28;20052;-84
2023/12/24 11:22:07;;;;;;;56.67;10.85;;;;;;;;;;5041231;28;20041;-84
2023/12/24 11:24:41;;;;;;;96.32;13.30;;;;;;;;;;5042978;28;20051;-85
2023/12/24 11:27:19;;;;;;;66.90;12.05;;;;;;;;;;5043307;28;20044;-84
2023/12/24 11:29:50;;;;;;;73.10;12.25;;;;;;;;;;5046091;28;20088;-85
2023/12/24 11:32:32;;;;;;;55.95;11.20;;;;;;;;;;5038890;28;20511;-83
2023/12/24 11:34:59;;;;;;;63.85;12.68;;;;;;;;;;5029179;28;20080;-84
2023/12/24 11:37:26;;;;;;;74.18;13.20;;;;;;;;;;5033765;28;20041;-85
2023/12/24 11:40:05;;;;;;;47.13;10.32;;;;;;;;;;5036480;28;20385;-84
2023/12/24 11:42:45;;;;;;;92.25;13.20;;;;;;;;;;5035248;28;20049;-86
2023/12/24 11:45:23;;;;;;;67.47;12.73;;;;;;;;;;5036010;28;20037;-85
2023/12/24 11:47:50;;;;;;;68.85;12.90;;;;;;;;;;5040082;28;20484;-85
2023/12/24 11:50:18;;;;;;;52.80;11.63;;;;;;;;;;5045044;28;20043;-84
2023/12/24 11:52:46;;;;;;;56.38;12.05;;;;;;;;;;5044106;28;20048;-84
2023/12/24 11:55:19;;;;;;;82.47;13.30;;;;;;;;;;5034994;28;20644;-84
2023/12/24 11:57:46;;;;;;;39.60;11.30;;;;;;;;;;5031764;28;20044;-85
2023/12/24 12:00:14;;;;;;;49.38;10.57;;;;;;;;;;5033187;28;20061;-84
2023/12/24 12:02:42;;;;;;;39.30;11.18;;;;;;;;;;5035893;28;20049;-84
2023/12/24 12:05:09;;;;;;;69.32;12.63;;;;;;;;;;5038167;28;20053;-85
2023/12/24 12:07:36;;;;;;;61.67;12.45;;;;;;;;;;5039230;28;20052;-85
2023/12/24 12:10:03;;;;;;;81.53;15.65;;;;;;;;;;5042301;28;20124;-87
2023/12/24 12:12:30;;;;;;;68.15;15.80;;;;;;;;;;5040541;28;20091;-85
2023/12/24 12:14:56;;;;;;;55.80;12.63;;;;;;;;;;5045817;28;20057;-85
2023/12/24 12:17:23;;;;;;;55.90;11.60;;;;;;;;;;5037097;28;20590;-84
2023/12/24 12:19:49;;;;;;;65.13;13.52;;;;;;;;;;5030345;28;20068;-85
2023/12/24 12:22:16;;;;;;;52.85;12.45;;;;;;;;;;5033674;28;20037;-85
2023/12/24 12:24:43;;;;;;;77.00;13.75;;;;;;;;;;5033724;28;20123;-84
2023/12/24 12:27:10;;;;;;;49.03;13.13;;;;;;;;;;5037251;28;20041;-84
2023/12/24 12:29:38;;;;;;;39.22;12.57;;;;;;;;;;5039014;28;20040;-85
2023/12/24 12:32:07;;;;;;;67.10;13.40;;;;;;;;;;5041274;28;20045;-85
2023/12/24 12:34:34;;;;;;;52.33;11.38;;;;;;;;;;5042815;28;20677;-85
2023/12/24 12:37:00;;;;;;;42.10;9.93;;;;;;;;;;5046357;28;20060;-85
2023/12/24 12:39:27;;;;;;;52.65;11.57;;;;;;;;;;5040345;28;20041;-85
2023/12/24 12:41:54;;;;;;;64.60;10.70;;;;;;;;;;5029809;28;20128;-85
2023/12/24 12:44:22;;;;;;;44.72;10.27;;;;;;;;;;5031436;28;20053;-85
2023/12/24 12:46:49;;;;;;;45.22;10.00;;;;;;;;;;5034929;28;20037;-85
2023/12/24 12:49:15;;;;;;;46.92;10.20;;;;;;;;;;5035873;28;20056;-85
2023/12/24 12:51:42;;;;;;;55.88;10.65;;;;;;;;;;5038520;28;20045;-85
2023/12/24 12:54:14;;;;;;;67.07;10.55;;;;;;;;;;5040320;28;20045;-85
2023/12/24 12:56:48;;;;;;;32.17;8.57;;;;;;;;;;5037921;28;20167;-85
2023/12/24 12:59:19;;;;;;;118.57;13.63;;;;;;;;;;5044612;28;20090;-85
2023/12/24 13:01:45;;;;;;;40.53;8.52;;;;;;;;;;5049132;28;20132;-85
2023/12/24 13:04:20;;;;;;;50.85;8.98;;;;;;;;;;5033426;28;20125;-85
2023/12/24 13:06:50;;;;;;;61.00;9.65;;;;;;;;;;5035039;28;20041;-85
2023/12/24 13:09:19;;;;;;;61.47;9.70;;;;;;;;;;5037055;28;20045;-85
2023/12/24 13:11:45;;;;;;;42.75;8.70;;;;;;;;;;5039642;28;20120;-85
2023/12/24 13:14:12;;;;;;;61.63;11.13;;;;;;;;;;5041586;28;20103;-85
2023/12/24 13:16:38;;;;;;;61.95;11.02;;;;;;;;;;5044466;28;20041;-85
2023/12/24 13:19:17;;;;;;;47.53;8.35;;;;;;;;;;5046546;28;20041;-86
2023/12/24 13:21:44;;;;;;;48.97;8.30;;;;;;;;;;5044424;28;20052;-85
2023/12/24 13:24:11;;;;;;;51.00;7.35;;;;;;;;;;5050125;28;20529;-85
2023/12/24 13:26:38;;;;;;;87.90;9.60;;;;;;;;;;5033008;28;20057;-85
2023/12/24 13:29:05;;;;;;;99.25;10.63;;;;;;;;;;5034678;28;20060;-85
2023/12/24 13:31:32;;;;;;;54.55;8.07;;;;;;;;;;5036528;28;20076;-85
2023/12/24 13:33:58;;;;;;;106.15;10.50;;;;;;;;;;5038255;28;20072;-85
2023/12/24 13:36:25;;;;;;;37.65;6.75;;;;;;;;;;5041134;28;20037;-85
2023/12/24 13:38:54;;;;;;;72.80;8.45;;;;;;;;;;5043321;28;20136;-85
2023/12/24 13:41:21;;;;;;;70.30;7.90;;;;;;;;;;5045292;28;20083;-85
2023/12/24 13:43:48;;;;;;;63.50;8.50;;;;;;;;;;5047568;28;20487;-85
2023/12/24 13:46:14;;;;;;;38.78;8.27;;;;;;;;;;5047171;28;20132;-85
2023/12/24 13:48:43;;;;;;;75.43;7.82;;;;;;;;;;5034835;28;20484;-85
2023/12/24 13:51:10;;;;;;;53.78;8.02;;;;;;;;;;5034506;28;20440;-85
2023/12/24 13:53:37;;;;;;;50.03;7.80;;;;;;;;;;5035898;28;20315;-85
2023/12/24 13:56:04;;;;;;;60.08;8.55;;;;;;;;;;5038698;28;20389;-85
2023/12/24 13:58:31;;;;;;;58.65;9.45;;;;;;;;;;5037534;28;20099;-85
2023/12/24 14:00:58;;;;;;;60.53;10.10;;;;;;;;;;5041671;28;20473;-85
2023/12/24 14:03:26;;;;;;;75.38;10.82;;;;;;;;;;5042643;28;20045;-84
2023/12/24 14:05:55;;;;;;;52.92;10.32;;;;;;;;;;5046728;28;20495;-85
2023/12/24 14:08:22;;;;;;;57.25;10.07;;;;;;;;;;5048560;28;20487;-84
2023/12/24 14:10:49;;;;;;;84.05;10.90;;;;;;;;;;5036484;28;20403;-85
2023/12/24 14:13:15;;;;;;;57.88;10.27;;;;;;;;;;5033466;28;20045;-85
2023/12/24 14:15:42;;;;;;;42.35;9.90;;;;;;;;;;5035256;28;20034;-86
2023/12/24 14:18:08;;;;;;;66.10;11.65;;;;;;;;;;5037755;28;20093;-85
2023/12/24 14:20:35;;;;;;;69.97;13.57;;;;;;;;;;5040013;28;20033;-85
2023/12/24 14:23:02;;;;;;;77.72;15.15;;;;;;;;;;5038012;28;20049;-85
2023/12/24 14:25:29;;;;;;;91.78;17.02;;;;;;;;;;5043874;28;20046;-85
2023/12/24 14:27:55;;;;;;;93.32;16.40;;;;;;;;;;5045992;28;20037;-84